createdAt,value
2022-10-13T00:01:24.500Z,101801.06
2022-10-13T00:06:27.076Z,101795.59
2022-10-13T00:11:31.393Z,101792.44
2022-10-13T00:16:33.181Z,101791.56
2022-10-13T00:21:35.187Z,101789.91
2022-10-13T00:26:39.555Z,101780.19
2022-10-13T00:31:41.868Z,101788.00
2022-10-13T00:36:43.610Z,101783.38
2022-10-13T00:41:46.942Z,101782.09
2022-10-13T00:46:49.055Z,101779.47
2022-10-13T00:51:51.369Z,101786.13
2022-10-13T00:56:54.939Z,101778.59
2022-10-13T01:01:59.547Z,101778.66
2022-10-13T01:07:02.162Z,101781.00
2022-10-13T01:12:14.244Z,101781.41
2022-10-13T01:17:23.109Z,101773.16
2022-10-13T01:22:45.446Z,101762.78
2022-10-13T01:28:09.212Z,101752.97
2022-10-13T01:33:24.276Z,101747.44
2022-10-13T01:38:37.315Z,101741.25
2022-10-13T01:43:43.315Z,101734.97
2022-10-13T01:48:46.806Z,101740.63
2022-10-13T01:53:49.344Z,101736.56
2022-10-13T01:58:53.054Z,101718.22
2022-10-13T02:04:10.278Z,101720.81
2022-10-13T02:09:20.609Z,101712.41
2022-10-13T02:14:27.104Z,101700.72
2022-10-13T02:19:33.576Z,101712.97
2022-10-13T02:24:36.117Z,101703.91
2022-10-13T02:29:51.186Z,101694.38
2022-10-13T02:34:54.497Z,101685.09
2022-10-13T02:39:56.574Z,101692.72
2022-10-13T02:44:58.365Z,101687.31
2022-10-13T02:50:02.048Z,101676.66
2022-10-13T02:55:04.921Z,101676.84
2022-10-13T03:00:07.956Z,101673.09
2022-10-13T03:05:11.000Z,101679.03
2022-10-13T03:10:13.180Z,101672.66
2022-10-13T03:15:15.266Z,101664.03
2022-10-13T03:20:18.319Z,101676.09
2022-10-13T03:25:20.165Z,101669.22
2022-10-13T03:30:22.120Z,101662.72
2022-10-13T03:35:25.576Z,101660.69
2022-10-13T03:40:27.558Z,101662.34
2022-10-13T03:45:29.370Z,101659.16
2022-10-13T03:50:32.898Z,101650.72
2022-10-13T03:55:34.688Z,101651.25
2022-10-13T04:00:36.589Z,101641.81
2022-10-13T04:05:40.063Z,101640.47
2022-10-13T04:10:42.124Z,101644.13
2022-10-13T04:15:43.794Z,101647.78
2022-10-13T04:20:48.227Z,101645.16
2022-10-13T04:25:50.400Z,101638.19
2022-10-13T04:30:52.419Z,101635.00
2022-10-13T04:35:56.227Z,101634.00
2022-10-13T04:40:58.379Z,101639.34
2022-10-13T04:46:01.260Z,101635.13
2022-10-13T04:51:07.984Z,101641.50
2022-10-13T04:56:11.989Z,101619.56
2022-10-13T05:01:19.002Z,101617.41
2022-10-13T05:06:27.116Z,101613.41
2022-10-13T05:11:29.653Z,101605.72
2022-10-13T05:16:32.294Z,101592.66
2022-10-13T05:21:35.620Z,101607.66
2022-10-13T05:26:37.582Z,101601.72
2022-10-13T05:31:40.200Z,101602.66
2022-10-13T05:36:43.519Z,101599.94
2022-10-13T05:41:45.160Z,101600.13
2022-10-13T05:46:47.129Z,101604.66
2022-10-13T05:51:55.070Z,101604.84
2022-10-13T05:57:01.596Z,101610.78
2022-10-13T06:02:05.467Z,101607.88
2022-10-13T06:07:10.013Z,101602.75
2022-10-13T06:12:11.834Z,101609.97
2022-10-13T06:17:13.855Z,101608.44
2022-10-13T06:22:17.180Z,101600.88
2022-10-13T06:27:19.395Z,101609.09
2022-10-13T06:32:21.724Z,101607.78
2022-10-13T06:37:27.522Z,101610.81
2022-10-13T06:42:29.385Z,101599.91
2022-10-13T06:47:31.567Z,101587.25
2022-10-13T06:52:35.252Z,101592.03
2022-10-13T06:57:37.255Z,101595.88
2022-10-13T07:02:38.933Z,101593.47
2022-10-13T07:07:42.481Z,101586.88
2022-10-13T07:12:44.166Z,101587.22
2022-10-13T07:17:45.785Z,101583.34
2022-10-13T07:22:48.844Z,101575.84
2022-10-13T07:27:50.476Z,101573.56
2022-10-13T07:32:52.317Z,101564.88
2022-10-13T07:37:55.392Z,101565.72
2022-10-13T07:42:57.265Z,101567.34
2022-10-13T07:47:58.850Z,101566.59
2022-10-13T07:53:02.447Z,101567.50
2022-10-13T07:58:04.092Z,101566.72
2022-10-13T08:03:05.775Z,101565.88
2022-10-13T08:08:09.166Z,101561.59
2022-10-13T08:13:11.699Z,101557.91
2022-10-13T08:18:14.987Z,101542.00
2022-10-13T08:23:18.221Z,101544.53
2022-10-13T08:28:22.616Z,101547.00
2022-10-13T08:33:25.474Z,101550.38
2022-10-13T08:38:28.461Z,101550.13
2022-10-13T08:43:30.189Z,101538.91
2022-10-13T08:48:37.283Z,101526.59
2022-10-13T08:53:42.471Z,101527.31
2022-10-13T08:58:44.363Z,101512.44
2022-10-13T09:03:52.386Z,101515.00
2022-10-13T09:08:58.038Z,101504.78
2022-10-13T09:14:02.816Z,101520.59
2022-10-13T09:19:26.157Z,101515.47
2022-10-13T09:24:29.316Z,101510.97
2022-10-13T09:29:31.309Z,101523.41
2022-10-13T09:34:33.391Z,101528.59
2022-10-13T09:39:36.883Z,101513.28
2022-10-13T09:44:39.113Z,101526.22
2022-10-13T09:49:43.221Z,101516.88
2022-10-13T09:54:49.236Z,101520.69
2022-10-13T09:59:53.484Z,101520.94
2022-10-13T10:05:00.323Z,101511.94
2022-10-13T10:10:13.175Z,101511.94
2022-10-13T10:15:35.424Z,101510.78
2022-10-13T10:20:46.533Z,101503.72
2022-10-13T10:25:52.381Z,101490.81
2022-10-13T10:36:05.321Z,101467.38
2022-10-13T10:41:23.129Z,101459.19
2022-10-13T10:46:28.449Z,101458.41
2022-10-13T10:51:33.014Z,101448.94
2022-10-13T10:56:40.061Z,101448.97
2022-10-13T11:01:47.107Z,101443.28
2022-10-13T11:06:49.125Z,101449.50
2022-10-13T11:11:52.745Z,101444.56
2022-10-13T11:17:17.192Z,101433.47
2022-10-13T11:22:22.127Z,101427.97
2022-10-13T11:27:38.895Z,101420.00
2022-10-13T11:32:45.560Z,101418.63
2022-10-13T11:38:08.290Z,101409.06
2022-10-13T11:43:26.215Z,101391.06
2022-10-13T11:49:01.777Z,101384.72
2022-10-13T11:54:19.372Z,101384.19
2022-10-13T11:59:25.902Z,101382.41
2022-10-13T12:04:29.143Z,101387.16
2022-10-13T12:09:32.474Z,101363.03
2022-10-13T12:14:39.772Z,101380.28
2022-10-13T12:19:41.954Z,101386.66
2022-10-13T12:24:43.971Z,101384.38
2022-10-13T12:29:47.232Z,101378.97
2022-10-13T12:34:49.319Z,101377.66
2022-10-13T12:39:52.194Z,101380.91
2022-10-13T12:44:56.764Z,101377.59
2022-10-13T12:50:37.563Z,101370.63
2022-10-13T12:55:49.970Z,101380.63
2022-10-13T13:01:01.014Z,101369.75
2022-10-13T13:06:20.853Z,101372.19
2022-10-13T13:11:24.606Z,101371.09
2022-10-13T13:16:27.778Z,101380.44
2022-10-13T13:21:29.524Z,101360.38
2022-10-13T13:26:31.297Z,101358.41
2022-10-13T13:31:34.835Z,101358.50
2022-10-13T13:36:36.617Z,101349.97
2022-10-13T13:41:38.365Z,101348.63
2022-10-13T13:46:41.901Z,101339.81
2022-10-13T13:51:43.581Z,101333.59
2022-10-13T13:56:45.753Z,101328.72
2022-10-13T14:01:49.020Z,101324.72
2022-10-13T14:06:51.525Z,101317.75
2022-10-13T14:11:53.579Z,101317.41
2022-10-13T14:16:57.305Z,101317.25
2022-10-13T14:21:59.853Z,101322.19
2022-10-13T14:27:01.500Z,101317.78
2022-10-13T14:32:05.274Z,101317.94
2022-10-13T14:37:06.954Z,101306.75
2022-10-13T14:42:09.059Z,101305.19
2022-10-13T14:47:12.569Z,101295.38
2022-10-13T14:52:14.807Z,101292.78
2022-10-13T14:57:16.926Z,101307.50
2022-10-13T15:02:20.828Z,101298.06
2022-10-13T15:07:22.906Z,101305.03
2022-10-13T15:12:25.309Z,101304.50
2022-10-13T15:17:29.902Z,101307.38
2022-10-13T15:22:32.229Z,101302.59
2022-10-13T15:27:38.071Z,101312.78
2022-10-13T15:32:44.691Z,101319.41
2022-10-13T15:37:46.437Z,101315.31
2022-10-13T15:42:48.422Z,101304.00
2022-10-13T15:47:52.367Z,101304.31
2022-10-13T15:52:54.129Z,101307.50
2022-10-13T15:57:55.956Z,101302.53
2022-10-13T16:03:00.182Z,101308.28
2022-10-13T16:08:01.884Z,101305.25
2022-10-13T16:13:03.530Z,101303.03
2022-10-13T16:18:06.575Z,101301.75
2022-10-13T16:23:08.253Z,101299.38
2022-10-13T16:28:10.308Z,101297.06
2022-10-13T16:33:13.505Z,101295.56
2022-10-13T16:38:15.820Z,101297.41
2022-10-13T16:43:17.902Z,101301.97
2022-10-13T16:48:20.895Z,101296.91
2022-10-13T16:53:22.893Z,101297.06
2022-10-13T16:58:24.768Z,101293.59
2022-10-13T17:03:28.664Z,101300.78
2022-10-13T17:08:31.339Z,101296.50
2022-10-13T17:13:34.775Z,101297.44
2022-10-13T17:18:37.863Z,101293.91
2022-10-13T17:23:44.616Z,101289.56
2022-10-13T17:28:49.575Z,101290.56
2022-10-13T17:33:53.270Z,101299.50
2022-10-13T17:38:56.587Z,101294.25
2022-10-13T17:43:58.255Z,101295.25
2022-10-13T17:49:01.761Z,101292.63
2022-10-13T17:54:03.973Z,101290.91
2022-10-13T17:59:05.988Z,101290.03
2022-10-13T18:04:11.889Z,101290.91
2022-10-13T18:09:16.202Z,101295.34
2022-10-13T18:14:18.414Z,101287.41
2022-10-13T18:19:22.280Z,101275.03
2022-10-13T18:24:25.095Z,101281.22
2022-10-13T18:29:26.986Z,101269.72
2022-10-13T18:34:30.477Z,101273.28
2022-10-13T18:39:32.139Z,101285.63
2022-10-13T18:44:34.677Z,101274.16
2022-10-13T18:49:38.121Z,101281.25
2022-10-13T18:54:40.174Z,101276.81
2022-10-13T18:59:41.855Z,101278.59
2022-10-13T19:04:46.314Z,101273.25
2022-10-13T19:09:47.903Z,101262.66
2022-10-13T19:14:49.745Z,101261.75
2022-10-13T19:19:53.481Z,101258.19
2022-10-13T19:24:55.164Z,101255.47
2022-10-13T19:29:57.016Z,101247.50
2022-10-13T19:35:00.043Z,101257.16
2022-10-13T19:40:02.281Z,101264.19
2022-10-13T19:45:05.836Z,101263.19
2022-10-13T19:50:09.677Z,101255.22
2022-10-13T19:55:11.716Z,101264.00
2022-10-13T20:00:15.166Z,101265.69
2022-10-13T20:05:23.234Z,101260.34
2022-10-13T20:10:27.668Z,101262.94
2022-10-13T20:15:29.310Z,101263.75
2022-10-13T20:20:34.016Z,101261.97
2022-10-13T20:25:36.714Z,101264.59
2022-10-13T20:30:39.259Z,101259.28
2022-10-13T20:35:42.572Z,101265.38
2022-10-13T20:40:44.512Z,101254.81
2022-10-13T20:45:46.777Z,101257.41
2022-10-13T20:50:50.307Z,101256.50
2022-10-13T20:55:55.637Z,101274.88
2022-10-13T21:00:57.970Z,101264.28
2022-10-13T21:06:02.832Z,101269.56
2022-10-13T21:11:06.278Z,101266.91
2022-10-13T21:16:09.443Z,101270.38
2022-10-13T21:21:12.969Z,101263.31
2022-10-13T21:26:18.967Z,101255.25
2022-10-13T21:31:24.615Z,101258.69
2022-10-13T21:36:30.195Z,101264.81
2022-10-13T21:41:32.160Z,101262.94
2022-10-13T21:46:34.779Z,101261.13
2022-10-13T21:51:39.895Z,101261.00
2022-10-13T21:56:42.248Z,101259.09
2022-10-13T22:01:43.896Z,101259.94
2022-10-13T22:06:47.604Z,101272.19
2022-10-13T22:11:51.823Z,101263.22
2022-10-13T22:16:57.246Z,101251.75
2022-10-13T22:22:00.638Z,101264.94
2022-10-13T22:27:02.311Z,101271.88
2022-10-13T22:32:04.534Z,101271.72
2022-10-13T22:37:08.067Z,101265.56
2022-10-13T22:42:10.172Z,101252.25
2022-10-13T22:47:12.147Z,101254.94
2022-10-13T22:52:15.107Z,101249.66
2022-10-13T22:57:17.235Z,101242.59
2022-10-13T23:02:19.337Z,101239.94
2022-10-13T23:07:22.902Z,101243.31
2022-10-13T23:12:25.208Z,101236.97
2022-10-13T23:17:26.894Z,101237.72
2022-10-13T23:22:30.146Z,101235.00
2022-10-13T23:27:32.129Z,101244.59
2022-10-13T23:32:34.298Z,101231.28
2022-10-13T23:37:37.636Z,101238.28
2022-10-13T23:42:39.263Z,101239.06
2022-10-13T23:47:41.200Z,101241.56
2022-10-13T23:52:44.544Z,101238.00
2022-10-13T23:57:46.200Z,101230.84
